Terminal Aerodrome Forecast
Issued by NWS Bismarck, ND

Home | Current Version | Previous Version | Graphics & Text | Print | Product List | Glossary On
Versions: 1 2 3 4 5 6 7 8 9 10 11 12 13 14 15 16 17 18 19 20 21
000
FTUS43 KBIS 152300
TAFISN
TAF
KISN 152339Z 1600/1624 34017G23KT P6SM SCT060
     FM160400 35014KT P6SM VCSH SCT035 BKN070
     FM160900 35009KT P6SM SCT150
     FM161400 34008KT P6SM SKC
     FM161800 30006KT P6SM SKC=

USA.gov is the U.S. government's official web portal to all federal, state and local government web resources and services.